createdAt,value
2023-01-09T00:01:55.932Z,7.17
2023-01-09T00:04:22.386Z,7.18
2023-01-09T00:06:54.193Z,7.23
2023-01-09T00:09:21.650Z,7.22
2023-01-09T00:11:48.493Z,7.17
2023-01-09T00:14:15.788Z,7.20
2023-01-09T00:16:42.377Z,7.25
2023-01-09T00:19:08.914Z,7.28
2023-01-09T00:21:35.818Z,7.30
2023-01-09T00:24:02.239Z,7.30
2023-01-09T00:26:28.680Z,7.23
2023-01-09T00:28:55.201Z,7.27
2023-01-09T00:31:23.317Z,7.28
2023-01-09T00:33:55.654Z,7.24
2023-01-09T00:36:22.375Z,7.23
2023-01-09T00:38:48.825Z,7.22
2023-01-09T00:41:17.553Z,7.26
2023-01-09T00:43:46.658Z,7.16
2023-01-09T00:46:13.808Z,7.24
2023-01-09T00:48:42.335Z,7.25
2023-01-09T00:51:09.081Z,7.24
2023-01-09T00:53:37.521Z,7.26
2023-01-09T00:56:07.180Z,7.25
2023-01-09T00:58:34.130Z,7.24
2023-01-09T01:01:00.741Z,7.25
2023-01-09T01:03:27.259Z,7.24
2023-01-09T01:06:12.073Z,7.27
2023-01-09T01:08:38.519Z,7.27
2023-01-09T01:11:06.218Z,7.32
2023-01-09T01:13:32.691Z,7.38
2023-01-09T01:15:59.135Z,7.40
2023-01-09T01:18:25.589Z,7.36
2023-01-09T01:20:52.135Z,7.36
2023-01-09T01:23:18.642Z,7.40
2023-01-09T01:25:45.125Z,7.38
2023-01-09T01:28:11.714Z,7.34
2023-01-09T01:30:42.290Z,7.27
2023-01-09T01:33:09.230Z,7.28
2023-01-09T01:35:36.218Z,7.30
2023-01-09T01:38:02.770Z,7.26
2023-01-09T01:40:29.804Z,7.28
2023-01-09T01:42:56.287Z,7.27
2023-01-09T01:45:24.065Z,7.33
2023-01-09T01:47:50.514Z,7.29
2023-01-09T01:50:21.501Z,7.28
2023-01-09T01:52:52.793Z,7.33
2023-01-09T01:55:19.608Z,7.35
2023-01-09T01:57:48.186Z,7.30
2023-01-09T02:00:14.875Z,7.35
2023-01-09T02:02:43.531Z,7.36
2023-01-09T02:05:10.065Z,7.29
2023-01-09T02:07:36.498Z,7.26
2023-01-09T02:10:03.419Z,7.24
2023-01-09T02:12:29.854Z,7.25
2023-01-09T02:15:03.349Z,7.32
2023-01-09T02:17:48.325Z,7.32
2023-01-09T02:20:27.099Z,7.29
2023-01-09T02:23:11.995Z,7.18
2023-01-09T02:25:38.409Z,7.14
2023-01-09T02:28:19.948Z,7.20
2023-01-09T02:30:49.482Z,7.28
2023-01-09T02:33:15.888Z,7.25
2023-01-09T02:35:57.716Z,7.18
2023-01-09T02:38:29.304Z,7.19
2023-01-09T02:41:08.592Z,7.20
2023-01-09T02:43:35.046Z,7.13
2023-01-09T02:46:01.609Z,7.14
2023-01-09T02:48:28.608Z,7.14
2023-01-09T02:51:01.339Z,7.13
2023-01-09T02:53:27.718Z,7.18
2023-01-09T02:56:17.237Z,7.19
2023-01-09T02:59:02.390Z,7.25
2023-01-09T03:01:48.129Z,7.33
2023-01-09T03:04:27.485Z,7.38
2023-01-09T03:06:59.139Z,7.37
2023-01-09T03:09:27.729Z,7.39
2023-01-09T03:11:57.576Z,7.36
2023-01-09T03:14:25.717Z,7.38
2023-01-09T03:16:55.769Z,7.41
2023-01-09T03:19:24.159Z,7.44
2023-01-09T03:21:51.301Z,7.46
2023-01-09T03:24:17.760Z,7.44
2023-01-09T03:26:44.458Z,7.47
2023-01-09T03:29:10.987Z,7.49
2023-01-09T03:31:37.549Z,7.54
2023-01-09T03:34:04.015Z,7.51
2023-01-09T03:36:30.448Z,7.52
2023-01-09T03:38:57.019Z,7.55
2023-01-09T03:41:23.466Z,7.54
2023-01-09T03:43:49.922Z,7.55
2023-01-09T03:46:17.188Z,7.57
2023-01-09T03:48:43.728Z,7.59
2023-01-09T03:51:10.210Z,7.63
2023-01-09T03:53:36.665Z,7.65
2023-01-09T03:56:03.157Z,7.67
2023-01-09T03:58:29.934Z,7.70
2023-01-09T04:01:00.805Z,7.71
2023-01-09T04:03:27.787Z,7.75
2023-01-09T04:05:54.657Z,7.72
2023-01-09T04:08:21.250Z,7.77
2023-01-09T04:10:51.241Z,7.79
2023-01-09T04:13:18.305Z,7.78
2023-01-09T04:15:44.745Z,7.80
2023-01-09T04:18:11.300Z,7.72
2023-01-09T04:20:37.866Z,7.69
2023-01-09T04:23:04.314Z,7.66
2023-01-09T04:25:31.160Z,7.66
2023-01-09T04:27:57.691Z,7.69
2023-01-09T04:30:24.476Z,7.73
2023-01-09T04:32:52.092Z,7.78
2023-01-09T04:35:19.094Z,7.79
2023-01-09T04:37:45.522Z,7.76
2023-01-09T04:40:12.254Z,7.74
2023-01-09T04:42:39.237Z,7.72
2023-01-09T04:45:06.251Z,7.76
2023-01-09T04:47:33.105Z,7.77
2023-01-09T04:50:00.284Z,7.76
2023-01-09T04:52:26.958Z,7.75
2023-01-09T04:54:53.438Z,7.80
2023-01-09T04:57:20.045Z,7.81
2023-01-09T04:59:46.520Z,7.80
2023-01-09T05:02:13.085Z,7.81
2023-01-09T05:04:39.861Z,7.85
2023-01-09T05:07:06.362Z,7.85
2023-01-09T05:09:32.833Z,7.84
2023-01-09T05:12:01.640Z,7.83
2023-01-09T05:14:28.273Z,7.88
2023-01-09T05:16:54.746Z,7.90
2023-01-09T05:19:21.601Z,7.93
2023-01-09T05:21:48.104Z,7.98
2023-01-09T05:24:14.557Z,7.98
2023-01-09T05:26:41.010Z,7.99
2023-01-09T05:29:07.533Z,7.95
2023-01-09T05:31:34.054Z,8.00
2023-01-09T05:34:00.886Z,8.00
2023-01-09T05:36:28.358Z,8.01
2023-01-09T05:38:54.928Z,8.02
2023-01-09T05:41:23.552Z,8.02
2023-01-09T05:43:50.616Z,8.06
2023-01-09T05:46:17.095Z,8.07
2023-01-09T05:48:44.590Z,8.08
2023-01-09T05:51:11.608Z,8.05
2023-01-09T05:53:38.024Z,8.09
2023-01-09T05:56:04.506Z,8.10
2023-01-09T05:58:31.132Z,8.14
2023-01-09T06:00:58.296Z,8.14
2023-01-09T06:03:24.740Z,8.12
2023-01-09T06:05:51.810Z,8.08
2023-01-09T06:08:18.305Z,8.08
2023-01-09T06:10:45.694Z,8.04
2023-01-09T06:13:12.146Z,8.04
2023-01-09T06:15:38.630Z,8.01
2023-01-09T06:18:05.140Z,8.00
2023-01-09T06:20:31.696Z,7.94
2023-01-09T06:22:58.215Z,7.92
2023-01-09T06:25:24.827Z,7.84
2023-01-09T06:27:52.261Z,7.86
2023-01-09T06:30:19.395Z,7.87
2023-01-09T06:32:47.985Z,7.93
2023-01-09T06:35:14.634Z,7.98
2023-01-09T06:37:41.076Z,8.01
2023-01-09T06:40:07.878Z,8.02
2023-01-09T06:42:34.356Z,8.03
2023-01-09T06:45:00.835Z,8.04
2023-01-09T06:47:27.339Z,8.06
2023-01-09T06:49:53.809Z,8.04
2023-01-09T06:52:20.263Z,8.08
2023-01-09T06:54:46.719Z,8.08
2023-01-09T06:57:14.577Z,8.08
2023-01-09T06:59:40.991Z,8.09
2023-01-09T07:02:15.084Z,8.16
2023-01-09T07:04:41.540Z,8.17
2023-01-09T07:07:07.971Z,8.11
2023-01-09T07:09:34.434Z,8.08
2023-01-09T07:12:01.046Z,8.05
2023-01-09T07:14:27.620Z,8.09
2023-01-09T07:16:54.090Z,8.07
2023-01-09T07:19:20.556Z,8.07
2023-01-09T07:21:47.085Z,8.09
2023-01-09T07:24:13.569Z,8.11
2023-01-09T07:26:41.055Z,8.10
2023-01-09T07:29:09.114Z,8.11
2023-01-09T07:31:35.622Z,8.10
2023-01-09T07:34:02.074Z,8.12
2023-01-09T07:36:28.542Z,8.07
2023-01-09T07:38:55.014Z,8.10
2023-01-09T07:41:21.553Z,8.11
2023-01-09T07:43:48.044Z,8.10
2023-01-09T07:46:14.515Z,8.13
2023-01-09T07:48:40.983Z,8.13
2023-01-09T07:51:07.443Z,8.08
2023-01-09T07:53:33.881Z,8.12
2023-01-09T07:56:00.308Z,8.13
2023-01-09T07:58:26.790Z,8.15
2023-01-09T08:00:53.256Z,8.12
2023-01-09T08:03:19.701Z,8.13
2023-01-09T08:05:46.301Z,8.16
2023-01-09T08:08:14.912Z,8.15
2023-01-09T08:10:41.381Z,8.14
2023-01-09T08:13:08.005Z,8.20
2023-01-09T08:15:34.619Z,8.19
2023-01-09T08:18:01.060Z,8.20
2023-01-09T08:20:27.660Z,8.18
2023-01-09T08:22:55.099Z,8.20
2023-01-09T08:25:21.549Z,8.22
2023-01-09T08:27:48.170Z,8.27
2023-01-09T08:30:14.865Z,8.26
2023-01-09T08:32:41.741Z,8.26
2023-01-09T08:35:08.832Z,8.24
2023-01-09T08:37:35.347Z,8.26
2023-01-09T08:40:01.799Z,8.32
2023-01-09T08:42:47.008Z,8.33
2023-01-09T08:45:31.888Z,8.32
2023-01-09T08:47:58.505Z,8.34
2023-01-09T08:50:25.063Z,8.37
2023-01-09T08:52:51.531Z,8.36
2023-01-09T08:55:17.977Z,8.32
2023-01-09T08:57:51.577Z,8.34
2023-01-09T09:00:18.651Z,8.36
2023-01-09T09:02:45.180Z,8.37
2023-01-09T09:05:11.654Z,8.38
2023-01-09T09:07:38.186Z,8.39
2023-01-09T09:10:04.846Z,8.41
2023-01-09T09:12:31.285Z,8.43
2023-01-09T09:15:12.746Z,8.44
2023-01-09T09:17:45.496Z,8.47
2023-01-09T09:20:12.482Z,8.47
2023-01-09T09:22:39.228Z,8.48
2023-01-09T09:25:06.583Z,8.53
2023-01-09T09:27:33.088Z,8.54
2023-01-09T09:29:59.554Z,8.58
2023-01-09T09:32:26.034Z,8.61
2023-01-09T09:34:52.510Z,8.62
2023-01-09T09:37:18.960Z,8.63
2023-01-09T09:39:45.505Z,8.64
2023-01-09T09:42:45.849Z,8.65
2023-01-09T09:45:36.152Z,8.58
2023-01-09T09:48:08.509Z,8.58
2023-01-09T09:50:53.785Z,8.57
2023-01-09T09:53:26.368Z,8.48
2023-01-09T09:55:52.978Z,8.48
2023-01-09T09:58:34.281Z,8.51
2023-01-09T10:01:01.160Z,8.49
2023-01-09T10:03:34.271Z,8.47
2023-01-09T10:06:03.663Z,8.44
2023-01-09T10:08:46.615Z,8.38
2023-01-09T10:11:20.548Z,8.42
2023-01-09T10:14:06.351Z,8.42
2023-01-09T10:16:53.817Z,8.34
2023-01-09T10:19:29.183Z,8.43
2023-01-09T10:22:01.614Z,8.44
2023-01-09T10:24:36.114Z,8.40
2023-01-09T10:27:10.025Z,8.38
2023-01-09T10:29:45.363Z,8.34
2023-01-09T10:32:30.709Z,8.32
2023-01-09T10:34:57.139Z,8.31
2023-01-09T10:37:26.912Z,8.30
2023-01-09T10:40:02.325Z,8.29
2023-01-09T10:42:37.548Z,8.26
2023-01-09T10:45:03.996Z,8.17
2023-01-09T10:47:35.294Z,8.23
2023-01-09T10:50:34.210Z,8.26
2023-01-09T10:53:05.062Z,8.28
2023-01-09T10:55:43.045Z,8.22
2023-01-09T10:58:13.532Z,8.28
2023-01-09T11:00:41.034Z,8.32
2023-01-09T11:03:11.933Z,8.39
2023-01-09T11:05:38.541Z,8.33
2023-01-09T11:08:14.077Z,8.41
2023-01-09T11:10:54.724Z,8.44
2023-01-09T11:13:25.963Z,8.51
2023-01-09T11:16:19.084Z,8.57
2023-01-09T11:18:57.706Z,8.60
2023-01-09T11:21:41.861Z,8.62
2023-01-09T11:24:21.350Z,8.66
2023-01-09T11:27:13.886Z,8.72
2023-01-09T11:29:43.570Z,8.69
2023-01-09T11:32:22.078Z,8.64
2023-01-09T11:34:49.253Z,8.63
2023-01-09T11:37:21.330Z,8.55
2023-01-09T11:39:48.162Z,8.47
2023-01-09T11:42:43.335Z,8.39
2023-01-09T11:45:15.483Z,8.39
2023-01-09T11:47:42.134Z,8.41
2023-01-09T11:50:16.974Z,8.43
2023-01-09T11:52:43.461Z,8.39
2023-01-09T11:55:12.402Z,8.43
2023-01-09T11:57:38.897Z,8.43
2023-01-09T12:00:21.654Z,8.46
2023-01-09T12:03:16.058Z,8.37
2023-01-09T12:05:42.486Z,8.37
2023-01-09T12:08:19.966Z,8.40
2023-01-09T12:11:10.687Z,8.35
2023-01-09T12:13:37.143Z,8.37
2023-01-09T12:16:03.617Z,8.34
2023-01-09T12:18:41.431Z,8.32
2023-01-09T12:21:13.642Z,8.26
2023-01-09T12:23:40.046Z,8.26
2023-01-09T12:26:06.474Z,8.29
2023-01-09T12:28:35.867Z,8.28
2023-01-09T12:31:02.321Z,8.30
2023-01-09T12:33:42.674Z,8.32
2023-01-09T12:36:28.015Z,8.30
2023-01-09T12:38:56.077Z,8.29
2023-01-09T12:41:23.094Z,8.28
2023-01-09T12:43:49.539Z,8.24
2023-01-09T12:46:18.038Z,8.20
2023-01-09T12:48:53.399Z,8.25
2023-01-09T12:51:19.841Z,8.21
2023-01-09T12:53:49.315Z,8.16
2023-01-09T12:56:21.733Z,8.12
2023-01-09T12:58:48.225Z,8.07
2023-01-09T13:01:18.424Z,8.05
2023-01-09T13:03:44.890Z,7.98
2023-01-09T13:06:14.786Z,7.98
2023-01-09T13:08:43.674Z,7.97
2023-01-09T13:11:21.055Z,7.95
2023-01-09T13:13:48.164Z,7.92
2023-01-09T13:16:17.312Z,7.94
2023-01-09T13:18:56.110Z,7.96
2023-01-09T13:21:22.772Z,7.97
2023-01-09T13:23:56.004Z,7.99
2023-01-09T13:26:25.504Z,8.00
2023-01-09T13:28:54.788Z,8.04
2023-01-09T13:31:33.729Z,8.08
2023-01-09T13:34:02.750Z,8.09
2023-01-09T13:36:31.384Z,8.12
2023-01-09T13:38:58.593Z,8.11
2023-01-09T13:41:45.839Z,8.13
2023-01-09T13:44:18.471Z,8.11
2023-01-09T13:46:49.497Z,8.09
2023-01-09T13:49:28.375Z,8.12
2023-01-09T13:51:59.783Z,8.11
2023-01-09T13:54:49.466Z,8.08
2023-01-09T13:57:18.536Z,8.08
2023-01-09T13:59:46.025Z,8.09
2023-01-09T14:02:31.290Z,8.11
2023-01-09T14:04:57.908Z,8.06
2023-01-09T14:07:26.258Z,8.00
2023-01-09T14:09:56.114Z,7.94
2023-01-09T14:12:23.364Z,7.88
2023-01-09T14:14:51.429Z,7.76
2023-01-09T14:17:23.342Z,7.72
2023-01-09T14:19:53.806Z,7.65
2023-01-09T14:22:38.051Z,7.68
2023-01-09T14:27:55.153Z,7.71
2023-01-09T14:30:27.468Z,7.63
2023-01-09T14:33:00.159Z,7.66
2023-01-09T14:35:37.339Z,7.68
2023-01-09T14:38:06.600Z,7.73
2023-01-09T14:40:33.292Z,7.79
2023-01-09T14:43:09.195Z,7.81
2023-01-09T14:45:37.859Z,7.83
2023-01-09T14:48:06.145Z,7.84
2023-01-09T14:50:37.977Z,7.81
2023-01-09T14:53:10.239Z,7.82
2023-01-09T14:55:55.536Z,7.82
2023-01-09T14:58:29.306Z,7.80
2023-01-09T15:01:06.685Z,7.72
2023-01-09T15:03:37.266Z,7.65
2023-01-09T15:06:04.221Z,7.65
2023-01-09T15:08:31.996Z,7.63
2023-01-09T15:10:59.517Z,7.58
2023-01-09T15:13:25.912Z,7.57
2023-01-09T15:15:52.505Z,7.56
2023-01-09T15:18:22.168Z,7.60
2023-01-09T15:20:52.682Z,7.62
2023-01-09T15:23:23.595Z,7.64
2023-01-09T15:25:50.077Z,7.66
2023-01-09T15:28:32.039Z,7.66
2023-01-09T15:31:11.678Z,7.62
2023-01-09T15:33:39.371Z,7.62
2023-01-09T15:36:12.877Z,7.56
2023-01-09T15:38:40.262Z,7.51
2023-01-09T15:41:09.023Z,7.51
2023-01-09T15:43:39.417Z,7.48
2023-01-09T15:46:06.055Z,7.48
2023-01-09T15:48:33.909Z,7.38
2023-01-09T15:51:03.447Z,7.38
2023-01-09T15:53:30.044Z,7.38
2023-01-09T15:56:07.724Z,7.31
2023-01-09T15:58:34.824Z,7.27
2023-01-09T16:01:07.543Z,7.26
2023-01-09T16:03:38.207Z,7.23
2023-01-09T16:06:09.799Z,7.23
2023-01-09T16:08:41.169Z,7.27
2023-01-09T16:11:10.734Z,7.35
2023-01-09T16:13:44.876Z,7.35
2023-01-09T16:16:12.141Z,7.26
2023-01-09T16:18:49.143Z,7.28
2023-01-09T16:21:23.508Z,7.25
2023-01-09T16:24:00.934Z,7.24
2023-01-09T16:26:28.650Z,7.28
2023-01-09T16:28:55.449Z,7.30
2023-01-09T16:31:31.265Z,7.25
2023-01-09T16:34:06.526Z,7.22
2023-01-09T16:36:36.627Z,7.23
2023-01-09T16:39:04.175Z,7.20
2023-01-09T16:41:49.257Z,7.13
2023-01-09T16:44:15.804Z,7.08
2023-01-09T16:46:43.754Z,7.09
2023-01-09T16:49:18.610Z,7.15
2023-01-09T16:51:45.567Z,7.23
2023-01-09T16:54:12.155Z,7.28
2023-01-09T16:56:39.524Z,7.28
2023-01-09T16:59:10.371Z,7.30
2023-01-09T17:01:36.884Z,7.20
2023-01-09T17:04:09.327Z,7.07
2023-01-09T17:06:35.850Z,7.00
2023-01-09T17:09:02.325Z,6.93
2023-01-09T17:11:31.632Z,6.96
2023-01-09T17:14:02.149Z,7.00
2023-01-09T17:16:29.004Z,7.01
2023-01-09T17:18:55.628Z,7.03
2023-01-09T17:21:23.306Z,7.07
2023-01-09T17:24:08.666Z,7.10
2023-01-09T17:26:54.700Z,7.01
2023-01-09T17:29:21.542Z,7.01
2023-01-09T17:31:48.075Z,6.97
2023-01-09T17:34:14.522Z,6.97
2023-01-09T17:36:41.055Z,6.93
2023-01-09T17:39:07.571Z,6.91
2023-01-09T17:41:34.070Z,6.87
2023-01-09T17:44:00.605Z,6.90
2023-01-09T17:46:28.955Z,6.96
2023-01-09T17:48:55.431Z,7.02
2023-01-09T17:51:21.873Z,7.02
2023-01-09T17:53:48.494Z,6.98
2023-01-09T17:56:17.309Z,7.00
2023-01-09T17:58:45.716Z,7.01
2023-01-09T18:01:16.536Z,7.02
2023-01-09T18:03:43.635Z,7.01
2023-01-09T18:06:11.772Z,7.05
2023-01-09T18:08:38.814Z,7.07
2023-01-09T18:11:06.154Z,7.08
2023-01-09T18:13:33.591Z,7.09
2023-01-09T18:16:03.730Z,7.09
2023-01-09T18:18:30.334Z,7.11
2023-01-09T18:20:56.872Z,7.13
2023-01-09T18:23:23.826Z,7.12
2023-01-09T18:25:50.365Z,7.08
2023-01-09T18:28:16.979Z,7.04
2023-01-09T18:30:45.252Z,7.05
2023-01-09T18:33:12.294Z,7.07
2023-01-09T18:35:39.039Z,7.08
2023-01-09T18:38:05.575Z,7.07
2023-01-09T18:40:33.149Z,7.05
2023-01-09T18:43:00.109Z,7.00
2023-01-09T18:45:26.649Z,6.87
2023-01-09T18:47:53.141Z,6.78
2023-01-09T18:50:19.602Z,6.82
2023-01-09T18:52:46.073Z,6.84
2023-01-09T18:55:12.545Z,6.88
2023-01-09T18:57:39.023Z,6.93
2023-01-09T19:00:05.886Z,6.96
2023-01-09T19:02:32.419Z,6.95
2023-01-09T19:04:58.897Z,6.91
2023-01-09T19:07:25.375Z,6.87
2023-01-09T19:09:51.839Z,6.82
2023-01-09T19:12:18.659Z,6.75
2023-01-09T19:14:45.366Z,6.70
2023-01-09T19:17:11.796Z,6.73
2023-01-09T19:19:38.261Z,6.71
2023-01-09T19:22:04.954Z,6.71
2023-01-09T19:24:33.005Z,6.76
2023-01-09T19:26:59.812Z,6.79
2023-01-09T19:29:26.971Z,6.82
2023-01-09T19:31:53.593Z,6.85
2023-01-09T19:34:20.546Z,6.89
2023-01-09T19:36:47.838Z,6.84
2023-01-09T19:39:14.444Z,6.84
2023-01-09T19:41:40.968Z,6.78
2023-01-09T19:44:07.653Z,6.76
2023-01-09T19:46:35.412Z,6.78
2023-01-09T19:49:04.793Z,6.78
2023-01-09T19:51:32.515Z,6.67
2023-01-09T19:56:25.907Z,6.57
2023-01-09T19:58:53.539Z,6.57
2023-01-09T20:01:24.743Z,6.61
2023-01-09T20:03:52.058Z,6.65
2023-01-09T20:06:22.362Z,6.70
2023-01-09T20:08:53.654Z,6.68
2023-01-09T20:11:20.670Z,6.65
2023-01-09T20:13:47.155Z,6.68
2023-01-09T20:16:15.412Z,6.65
2023-01-09T20:18:41.922Z,6.68
2023-01-09T20:21:08.367Z,6.68
2023-01-09T20:23:34.846Z,6.68
2023-01-09T20:26:01.798Z,6.68
2023-01-09T20:28:28.272Z,6.73
2023-01-09T20:30:55.134Z,6.71
2023-01-09T20:33:22.072Z,6.75
2023-01-09T20:35:48.638Z,6.74
2023-01-09T20:38:15.245Z,6.69
2023-01-09T20:40:44.681Z,6.67
2023-01-09T20:43:12.553Z,6.61
2023-01-09T20:45:39.673Z,6.61
2023-01-09T20:48:06.410Z,6.58
2023-01-09T20:50:33.302Z,6.58
2023-01-09T20:52:59.777Z,6.60
2023-01-09T20:55:26.277Z,6.59
2023-01-09T20:57:52.798Z,6.56
2023-01-09T21:00:19.283Z,6.59
2023-01-09T21:02:45.773Z,6.62
2023-01-09T21:05:12.313Z,6.66
2023-01-09T21:07:38.756Z,6.63
2023-01-09T21:10:05.496Z,6.56
2023-01-09T21:12:35.293Z,6.51
2023-01-09T21:15:04.655Z,6.52
2023-01-09T21:17:35.052Z,6.46
2023-01-09T21:20:01.497Z,6.42
2023-01-09T21:22:27.996Z,6.44
2023-01-09T21:24:54.441Z,6.50
2023-01-09T21:27:20.930Z,6.55
2023-01-09T21:29:47.459Z,6.56
2023-01-09T21:32:13.968Z,6.57
2023-01-09T21:34:40.510Z,6.54
2023-01-09T21:37:07.132Z,6.58
2023-01-09T21:39:34.156Z,6.58
2023-01-09T21:42:18.983Z,6.57
2023-01-09T21:45:03.800Z,6.52
2023-01-09T21:47:32.186Z,6.54
2023-01-09T21:49:58.613Z,6.53
2023-01-09T21:52:25.707Z,6.50
2023-01-09T21:54:52.208Z,6.52
2023-01-09T21:57:18.821Z,6.51
2023-01-09T21:59:45.245Z,6.50
2023-01-09T22:02:12.879Z,6.43
2023-01-09T22:04:39.897Z,6.35
2023-01-09T22:07:06.331Z,6.36
2023-01-09T22:09:32.826Z,6.39
2023-01-09T22:11:59.254Z,6.37
2023-01-09T22:14:25.690Z,6.32
2023-01-09T22:16:52.164Z,6.30
2023-01-09T22:19:18.671Z,6.26
2023-01-09T22:21:45.487Z,6.29
2023-01-09T22:24:12.868Z,6.30
2023-01-09T22:26:39.309Z,6.29
2023-01-09T22:29:05.793Z,6.22
2023-01-09T22:31:35.333Z,6.26
2023-01-09T22:34:02.646Z,6.30
2023-01-09T22:36:29.841Z,6.35
2023-01-09T22:38:57.033Z,6.40
2023-01-09T22:41:24.615Z,6.43
2023-01-09T22:43:51.526Z,6.46
2023-01-09T22:46:18.040Z,6.50
2023-01-09T22:48:44.842Z,6.52
2023-01-09T22:51:15.668Z,6.54
2023-01-09T22:53:42.360Z,6.54
2023-01-09T22:56:11.499Z,6.57
2023-01-09T22:58:37.963Z,6.58
2023-01-09T23:01:05.016Z,6.60
2023-01-09T23:03:31.492Z,6.62
2023-01-09T23:06:17.193Z,6.63
2023-01-09T23:08:43.953Z,6.56
2023-01-09T23:11:12.948Z,6.52
2023-01-09T23:13:39.401Z,6.48
2023-01-09T23:16:05.963Z,6.48
2023-01-09T23:18:32.410Z,6.46
2023-01-09T23:21:00.693Z,6.50
2023-01-09T23:23:27.853Z,6.48
2023-01-09T23:25:55.318Z,6.45
2023-01-09T23:28:22.222Z,6.49
2023-01-09T23:30:48.751Z,6.52
2023-01-09T23:33:16.681Z,6.54
2023-01-09T23:35:43.652Z,6.55
2023-01-09T23:38:11.616Z,6.55
2023-01-09T23:40:39.136Z,6.57
2023-01-09T23:43:11.437Z,6.59
2023-01-09T23:45:49.419Z,6.58
2023-01-09T23:48:16.824Z,6.58
2023-01-09T23:50:44.812Z,6.58
2023-01-09T23:53:11.310Z,6.60
2023-01-09T23:55:37.755Z,6.59
2023-01-09T23:58:04.191Z,6.58
